sensor_id;sensor_type;location;lat;lon;timestamp;P1;durP1;ratioP1;P2;durP2;ratioP2
6985;SDS011;3533;51.246;6.850;2023-05-20T00:00:35;1.90;;;1.80;;
6985;SDS011;3533;51.246;6.850;2023-05-20T00:03:01;1.70;;;1.57;;
6985;SDS011;3533;51.246;6.850;2023-05-20T00:05:27;1.50;;;1.40;;
6985;SDS011;3533;51.246;6.850;2023-05-20T00:07:52;1.70;;;1.60;;
6985;SDS011;3533;51.246;6.850;2023-05-20T00:10:18;1.70;;;1.60;;
6985;SDS011;3533;51.246;6.850;2023-05-20T00:12:43;1.73;;;1.63;;
6985;SDS011;3533;51.246;6.850;2023-05-20T00:15:09;2.10;;;1.63;;
6985;SDS011;3533;51.246;6.850;2023-05-20T00:17:37;1.80;;;1.70;;
6985;SDS011;3533;51.246;6.850;2023-05-20T00:20:03;2.17;;;2.00;;
6985;SDS011;3533;51.246;6.850;2023-05-20T00:22:30;1.90;;;1.80;;
6985;SDS011;3533;51.246;6.850;2023-05-20T00:24:56;2.30;;;1.60;;
6985;SDS011;3533;51.246;6.850;2023-05-20T00:27:21;1.60;;;1.50;;
6985;SDS011;3533;51.246;6.850;2023-05-20T00:29:47;2.27;;;1.60;;
6985;SDS011;3533;51.246;6.850;2023-05-20T00:32:12;1.57;;;1.47;;
6985;SDS011;3533;51.246;6.850;2023-05-20T00:34:38;2.00;;;1.90;;
6985;SDS011;3533;51.246;6.850;2023-05-20T00:37:04;1.60;;;1.50;;
6985;SDS011;3533;51.246;6.850;2023-05-20T00:39:30;2.03;;;1.93;;
6985;SDS011;3533;51.246;6.850;2023-05-20T00:41:56;2.10;;;1.50;;
6985;SDS011;3533;51.246;6.850;2023-05-20T00:44:24;1.80;;;1.70;;
6985;SDS011;3533;51.246;6.850;2023-05-20T00:46:50;1.70;;;1.60;;
6985;SDS011;3533;51.246;6.850;2023-05-20T00:49:17;1.80;;;1.70;;
6985;SDS011;3533;51.246;6.850;2023-05-20T00:51:43;1.70;;;1.50;;
6985;SDS011;3533;51.246;6.850;2023-05-20T00:54:08;1.43;;;1.33;;
6985;SDS011;3533;51.246;6.850;2023-05-20T00:56:34;2.07;;;1.60;;
6985;SDS011;3533;51.246;6.850;2023-05-20T00:59:00;1.70;;;1.60;;
6985;SDS011;3533;51.246;6.850;2023-05-20T01:01:26;1.63;;;1.53;;
6985;SDS011;3533;51.246;6.850;2023-05-20T01:03:52;1.80;;;1.70;;
6985;SDS011;3533;51.246;6.850;2023-05-20T01:06:17;1.53;;;1.43;;
6985;SDS011;3533;51.246;6.850;2023-05-20T01:08:43;1.63;;;1.53;;
6985;SDS011;3533;51.246;6.850;2023-05-20T01:11:14;1.57;;;1.47;;
6985;SDS011;3533;51.246;6.850;2023-05-20T01:13:54;2.10;;;1.60;;
6985;SDS011;3533;51.246;6.850;2023-05-20T01:16:30;2.13;;;1.70;;
6985;SDS011;3533;51.246;6.850;2023-05-20T01:18:58;1.70;;;1.60;;
6985;SDS011;3533;51.246;6.850;2023-05-20T01:21:26;1.53;;;1.43;;
6985;SDS011;3533;51.246;6.850;2023-05-20T01:23:53;1.47;;;1.37;;
6985;SDS011;3533;51.246;6.850;2023-05-20T01:26:18;2.20;;;1.60;;
6985;SDS011;3533;51.246;6.850;2023-05-20T01:28:45;1.60;;;1.50;;
6985;SDS011;3533;51.246;6.850;2023-05-20T01:31:13;1.80;;;1.70;;
6985;SDS011;3533;51.246;6.850;2023-05-20T01:33:43;1.37;;;1.27;;
6985;SDS011;3533;51.246;6.850;2023-05-20T01:36:10;1.60;;;1.50;;
6985;SDS011;3533;51.246;6.850;2023-05-20T01:38:36;2.17;;;2.07;;
6985;SDS011;3533;51.246;6.850;2023-05-20T01:41:04;1.53;;;1.43;;
6985;SDS011;3533;51.246;6.850;2023-05-20T01:43:30;2.00;;;1.90;;
6985;SDS011;3533;51.246;6.850;2023-05-20T01:45:56;1.50;;;1.40;;
6985;SDS011;3533;51.246;6.850;2023-05-20T01:48:21;1.83;;;1.73;;
6985;SDS011;3533;51.246;6.850;2023-05-20T01:50:47;1.60;;;1.50;;
6985;SDS011;3533;51.246;6.850;2023-05-20T01:53:13;1.70;;;1.60;;
6985;SDS011;3533;51.246;6.850;2023-05-20T01:55:38;1.60;;;1.50;;
6985;SDS011;3533;51.246;6.850;2023-05-20T01:58:04;1.60;;;1.50;;
6985;SDS011;3533;51.246;6.850;2023-05-20T02:00:31;2.53;;;1.80;;
6985;SDS011;3533;51.246;6.850;2023-05-20T02:02:58;1.70;;;1.60;;
6985;SDS011;3533;51.246;6.850;2023-05-20T02:05:23;1.50;;;1.40;;
6985;SDS011;3533;51.246;6.850;2023-05-20T02:07:49;1.50;;;1.40;;
6985;SDS011;3533;51.246;6.850;2023-05-20T02:10:15;1.70;;;1.60;;
6985;SDS011;3533;51.246;6.850;2023-05-20T02:12:41;1.60;;;1.50;;
6985;SDS011;3533;51.246;6.850;2023-05-20T02:15:06;1.43;;;1.33;;
6985;SDS011;3533;51.246;6.850;2023-05-20T02:17:32;1.40;;;1.30;;
6985;SDS011;3533;51.246;6.850;2023-05-20T02:19:58;1.80;;;1.70;;
6985;SDS011;3533;51.246;6.850;2023-05-20T02:22:23;1.70;;;1.60;;
6985;SDS011;3533;51.246;6.850;2023-05-20T02:24:49;1.30;;;1.20;;
6985;SDS011;3533;51.246;6.850;2023-05-20T02:27:14;1.67;;;1.57;;
6985;SDS011;3533;51.246;6.850;2023-05-20T02:29:41;1.70;;;1.60;;
6985;SDS011;3533;51.246;6.850;2023-05-20T02:32:08;1.30;;;1.20;;
6985;SDS011;3533;51.246;6.850;2023-05-20T02:34:33;1.53;;;1.43;;
6985;SDS011;3533;51.246;6.850;2023-05-20T02:36:59;1.53;;;1.43;;
6985;SDS011;3533;51.246;6.850;2023-05-20T02:39:25;1.80;;;1.70;;
6985;SDS011;3533;51.246;6.850;2023-05-20T02:41:52;2.37;;;1.70;;
6985;SDS011;3533;51.246;6.850;2023-05-20T02:44:17;1.40;;;1.30;;
6985;SDS011;3533;51.246;6.850;2023-05-20T02:46:43;1.80;;;1.70;;
6985;SDS011;3533;51.246;6.850;2023-05-20T02:49:08;1.40;;;1.30;;
6985;SDS011;3533;51.246;6.850;2023-05-20T02:51:35;1.70;;;1.60;;
6985;SDS011;3533;51.246;6.850;2023-05-20T02:54:00;1.63;;;1.53;;
6985;SDS011;3533;51.246;6.850;2023-05-20T02:56:26;1.60;;;1.50;;
6985;SDS011;3533;51.246;6.850;2023-05-20T02:58:52;1.60;;;1.50;;
6985;SDS011;3533;51.246;6.850;2023-05-20T03:01:18;1.60;;;1.50;;
6985;SDS011;3533;51.246;6.850;2023-05-20T03:03:43;1.40;;;1.30;;
6985;SDS011;3533;51.246;6.850;2023-05-20T03:06:09;1.37;;;1.27;;
6985;SDS011;3533;51.246;6.850;2023-05-20T03:08:34;1.37;;;1.27;;
6985;SDS011;3533;51.246;6.850;2023-05-20T03:11:00;1.43;;;1.33;;
6985;SDS011;3533;51.246;6.850;2023-05-20T03:13:26;2.20;;;1.40;;
6985;SDS011;3533;51.246;6.850;2023-05-20T03:15:51;1.43;;;1.33;;
6985;SDS011;3533;51.246;6.850;2023-05-20T03:18:17;1.63;;;1.53;;
6985;SDS011;3533;51.246;6.850;2023-05-20T03:20:42;1.53;;;1.43;;
6985;SDS011;3533;51.246;6.850;2023-05-20T03:23:08;1.60;;;1.50;;
6985;SDS011;3533;51.246;6.850;2023-05-20T03:25:35;1.60;;;1.50;;
6985;SDS011;3533;51.246;6.850;2023-05-20T03:28:01;1.60;;;1.50;;
6985;SDS011;3533;51.246;6.850;2023-05-20T03:30:26;1.30;;;1.20;;
6985;SDS011;3533;51.246;6.850;2023-05-20T03:32:52;1.47;;;1.37;;
6985;SDS011;3533;51.246;6.850;2023-05-20T03:35:21;1.80;;;1.60;;
6985;SDS011;3533;51.246;6.850;2023-05-20T03:37:47;1.70;;;1.60;;
6985;SDS011;3533;51.246;6.850;2023-05-20T03:40:12;1.43;;;1.33;;
6985;SDS011;3533;51.246;6.850;2023-05-20T03:42:38;1.63;;;1.40;;
6985;SDS011;3533;51.246;6.850;2023-05-20T03:45:04;1.60;;;1.50;;
6985;SDS011;3533;51.246;6.850;2023-05-20T03:47:30;1.67;;;1.57;;
6985;SDS011;3533;51.246;6.850;2023-05-20T03:49:56;1.50;;;1.40;;
6985;SDS011;3533;51.246;6.850;2023-05-20T03:52:22;2.10;;;1.60;;
6985;SDS011;3533;51.246;6.850;2023-05-20T03:54:47;1.50;;;1.40;;
6985;SDS011;3533;51.246;6.850;2023-05-20T03:57:13;1.57;;;1.47;;
6985;SDS011;3533;51.246;6.850;2023-05-20T03:59:38;1.47;;;1.37;;
6985;SDS011;3533;51.246;6.850;2023-05-20T04:02:04;1.30;;;1.20;;
6985;SDS011;3533;51.246;6.850;2023-05-20T04:04:30;1.70;;;1.60;;
6985;SDS011;3533;51.246;6.850;2023-05-20T04:06:56;1.50;;;1.40;;
6985;SDS011;3533;51.246;6.850;2023-05-20T04:09:24;1.60;;;1.50;;
6985;SDS011;3533;51.246;6.850;2023-05-20T04:11:50;1.77;;;1.40;;
6985;SDS011;3533;51.246;6.850;2023-05-20T04:14:16;1.50;;;1.40;;
6985;SDS011;3533;51.246;6.850;2023-05-20T04:16:41;1.40;;;1.30;;
6985;SDS011;3533;51.246;6.850;2023-05-20T04:19:07;1.43;;;1.33;;
6985;SDS011;3533;51.246;6.850;2023-05-20T04:21:33;1.53;;;1.43;;
6985;SDS011;3533;51.246;6.850;2023-05-20T04:23:58;1.50;;;1.40;;
6985;SDS011;3533;51.246;6.850;2023-05-20T04:26:24;1.33;;;1.23;;
6985;SDS011;3533;51.246;6.850;2023-05-20T04:28:50;1.67;;;1.57;;
6985;SDS011;3533;51.246;6.850;2023-05-20T04:31:15;1.30;;;1.20;;
6985;SDS011;3533;51.246;6.850;2023-05-20T04:33:41;1.60;;;1.50;;
6985;SDS011;3533;51.246;6.850;2023-05-20T04:36:09;1.50;;;1.40;;
6985;SDS011;3533;51.246;6.850;2023-05-20T04:38:36;1.97;;;1.60;;
6985;SDS011;3533;51.246;6.850;2023-05-20T04:41:02;1.63;;;1.53;;
6985;SDS011;3533;51.246;6.850;2023-05-20T04:43:28;1.67;;;1.53;;
6985;SDS011;3533;51.246;6.850;2023-05-20T04:45:57;1.30;;;1.20;;
6985;SDS011;3533;51.246;6.850;2023-05-20T04:48:23;1.60;;;1.50;;
6985;SDS011;3533;51.246;6.850;2023-05-20T04:50:49;1.53;;;1.43;;
6985;SDS011;3533;51.246;6.850;2023-05-20T04:53:18;1.60;;;1.50;;
6985;SDS011;3533;51.246;6.850;2023-05-20T04:55:45;1.50;;;1.40;;
6985;SDS011;3533;51.246;6.850;2023-05-20T04:58:12;1.40;;;1.30;;
6985;SDS011;3533;51.246;6.850;2023-05-20T05:00:41;1.67;;;1.57;;
6985;SDS011;3533;51.246;6.850;2023-05-20T05:03:10;1.63;;;1.53;;
6985;SDS011;3533;51.246;6.850;2023-05-20T05:05:37;1.50;;;1.40;;
6985;SDS011;3533;51.246;6.850;2023-05-20T05:08:06;3.60;;;1.30;;
6985;SDS011;3533;51.246;6.850;2023-05-20T05:10:33;1.40;;;1.30;;
6985;SDS011;3533;51.246;6.850;2023-05-20T05:12:59;1.47;;;1.37;;
6985;SDS011;3533;51.246;6.850;2023-05-20T05:15:25;1.50;;;1.40;;
6985;SDS011;3533;51.246;6.850;2023-05-20T05:17:51;1.50;;;1.40;;
6985;SDS011;3533;51.246;6.850;2023-05-20T05:20:16;1.70;;;1.60;;
6985;SDS011;3533;51.246;6.850;2023-05-20T05:22:42;1.43;;;1.33;;
6985;SDS011;3533;51.246;6.850;2023-05-20T05:25:08;1.50;;;1.40;;
6985;SDS011;3533;51.246;6.850;2023-05-20T05:27:34;1.50;;;1.40;;
6985;SDS011;3533;51.246;6.850;2023-05-20T05:30:00;2.00;;;1.43;;
6985;SDS011;3533;51.246;6.850;2023-05-20T05:32:27;1.60;;;1.50;;
6985;SDS011;3533;51.246;6.850;2023-05-20T05:34:52;1.63;;;1.53;;
6985;SDS011;3533;51.246;6.850;2023-05-20T05:37:18;1.40;;;1.30;;
6985;SDS011;3533;51.246;6.850;2023-05-20T05:39:44;1.90;;;1.80;;
6985;SDS011;3533;51.246;6.850;2023-05-20T05:42:09;1.60;;;1.50;;
6985;SDS011;3533;51.246;6.850;2023-05-20T05:44:35;1.53;;;1.40;;
6985;SDS011;3533;51.246;6.850;2023-05-20T05:47:00;1.40;;;1.30;;
6985;SDS011;3533;51.246;6.850;2023-05-20T05:49:26;1.40;;;1.30;;
6985;SDS011;3533;51.246;6.850;2023-05-20T05:51:52;1.40;;;1.30;;
6985;SDS011;3533;51.246;6.850;2023-05-20T05:54:17;1.33;;;1.23;;
6985;SDS011;3533;51.246;6.850;2023-05-20T05:56:44;1.50;;;1.40;;
6985;SDS011;3533;51.246;6.850;2023-05-20T05:59:10;1.67;;;1.57;;
6985;SDS011;3533;51.246;6.850;2023-05-20T06:01:36;1.60;;;1.50;;
6985;SDS011;3533;51.246;6.850;2023-05-20T06:04:01;1.50;;;1.40;;
6985;SDS011;3533;51.246;6.850;2023-05-20T06:06:27;2.53;;;1.60;;
6985;SDS011;3533;51.246;6.850;2023-05-20T06:08:53;4.83;;;1.77;;
6985;SDS011;3533;51.246;6.850;2023-05-20T06:11:19;1.67;;;1.57;;
6985;SDS011;3533;51.246;6.850;2023-05-20T06:13:45;2.13;;;1.67;;
6985;SDS011;3533;51.246;6.850;2023-05-20T06:16:11;5.37;;;2.03;;
6985;SDS011;3533;51.246;6.850;2023-05-20T06:18:36;3.60;;;2.00;;
6985;SDS011;3533;51.246;6.850;2023-05-20T06:21:02;2.60;;;1.57;;
6985;SDS011;3533;51.246;6.850;2023-05-20T06:23:28;3.30;;;1.60;;
6985;SDS011;3533;51.246;6.850;2023-05-20T06:25:56;3.40;;;1.70;;
6985;SDS011;3533;51.246;6.850;2023-05-20T06:28:23;1.80;;;1.70;;
6985;SDS011;3533;51.246;6.850;2023-05-20T06:30:49;1.90;;;1.50;;
6985;SDS011;3533;51.246;6.850;2023-05-20T06:33:14;1.63;;;1.40;;
6985;SDS011;3533;51.246;6.850;2023-05-20T06:35:41;1.60;;;1.50;;
6985;SDS011;3533;51.246;6.850;2023-05-20T06:38:07;1.50;;;1.40;;
6985;SDS011;3533;51.246;6.850;2023-05-20T06:40:32;8.10;;;1.50;;
6985;SDS011;3533;51.246;6.850;2023-05-20T06:42:58;3.23;;;1.60;;
6985;SDS011;3533;51.246;6.850;2023-05-20T06:45:23;1.60;;;1.50;;
6985;SDS011;3533;51.246;6.850;2023-05-20T06:47:49;4.70;;;1.50;;
6985;SDS011;3533;51.246;6.850;2023-05-20T06:50:17;2.57;;;1.70;;
6985;SDS011;3533;51.246;6.850;2023-05-20T06:52:42;3.00;;;1.70;;
6985;SDS011;3533;51.246;6.850;2023-05-20T06:55:08;1.60;;;1.50;;
6985;SDS011;3533;51.246;6.850;2023-05-20T06:57:34;1.50;;;1.40;;
6985;SDS011;3533;51.246;6.850;2023-05-20T07:00:00;1.63;;;1.53;;
6985;SDS011;3533;51.246;6.850;2023-05-20T07:02:25;1.70;;;1.60;;
6985;SDS011;3533;51.246;6.850;2023-05-20T07:04:51;2.23;;;1.60;;
6985;SDS011;3533;51.246;6.850;2023-05-20T07:07:16;1.73;;;1.50;;
6985;SDS011;3533;51.246;6.850;2023-05-20T07:09:42;1.70;;;1.43;;
6985;SDS011;3533;51.246;6.850;2023-05-20T07:12:07;2.03;;;1.60;;
6985;SDS011;3533;51.246;6.850;2023-05-20T07:14:33;1.60;;;1.50;;
6985;SDS011;3533;51.246;6.850;2023-05-20T07:16:58;1.97;;;1.77;;
6985;SDS011;3533;51.246;6.850;2023-05-20T07:19:24;1.87;;;1.50;;
6985;SDS011;3533;51.246;6.850;2023-05-20T07:21:49;1.53;;;1.43;;
6985;SDS011;3533;51.246;6.850;2023-05-20T07:24:15;1.57;;;1.47;;
6985;SDS011;3533;51.246;6.850;2023-05-20T07:26:41;2.70;;;1.40;;
6985;SDS011;3533;51.246;6.850;2023-05-20T07:29:07;1.60;;;1.50;;
6985;SDS011;3533;51.246;6.850;2023-05-20T07:31:34;1.43;;;1.33;;
6985;SDS011;3533;51.246;6.850;2023-05-20T07:34:00;1.50;;;1.40;;
6985;SDS011;3533;51.246;6.850;2023-05-20T07:36:26;1.60;;;1.50;;
6985;SDS011;3533;51.246;6.850;2023-05-20T07:38:52;2.30;;;1.40;;
6985;SDS011;3533;51.246;6.850;2023-05-20T07:41:18;1.53;;;1.43;;
6985;SDS011;3533;51.246;6.850;2023-05-20T07:43:44;4.30;;;1.90;;
6985;SDS011;3533;51.246;6.850;2023-05-20T07:46:09;2.70;;;1.67;;
6985;SDS011;3533;51.246;6.850;2023-05-20T07:48:35;1.83;;;1.37;;
6985;SDS011;3533;51.246;6.850;2023-05-20T07:51:00;2.93;;;1.50;;
6985;SDS011;3533;51.246;6.850;2023-05-20T07:53:26;1.80;;;1.70;;
6985;SDS011;3533;51.246;6.850;2023-05-20T07:55:52;1.60;;;1.50;;
6985;SDS011;3533;51.246;6.850;2023-05-20T07:58:17;1.80;;;1.70;;
6985;SDS011;3533;51.246;6.850;2023-05-20T08:00:43;3.67;;;1.93;;
6985;SDS011;3533;51.246;6.850;2023-05-20T08:03:08;1.50;;;1.40;;
6985;SDS011;3533;51.246;6.850;2023-05-20T08:05:37;1.73;;;1.43;;
6985;SDS011;3533;51.246;6.850;2023-05-20T08:08:03;1.83;;;1.73;;
6985;SDS011;3533;51.246;6.850;2023-05-20T08:10:29;1.87;;;1.77;;
6985;SDS011;3533;51.246;6.850;2023-05-20T08:12:55;1.50;;;1.40;;
6985;SDS011;3533;51.246;6.850;2023-05-20T08:15:21;1.40;;;1.30;;
6985;SDS011;3533;51.246;6.850;2023-05-20T08:17:46;1.60;;;1.50;;
6985;SDS011;3533;51.246;6.850;2023-05-20T08:20:12;1.70;;;1.50;;
6985;SDS011;3533;51.246;6.850;2023-05-20T08:22:38;1.33;;;1.23;;
6985;SDS011;3533;51.246;6.850;2023-05-20T08:25:06;1.90;;;1.50;;
6985;SDS011;3533;51.246;6.850;2023-05-20T08:27:33;1.30;;;1.20;;
6985;SDS011;3533;51.246;6.850;2023-05-20T08:29:59;1.50;;;1.40;;
6985;SDS011;3533;51.246;6.850;2023-05-20T08:32:24;1.50;;;1.40;;
6985;SDS011;3533;51.246;6.850;2023-05-20T08:34:50;1.53;;;1.43;;
6985;SDS011;3533;51.246;6.850;2023-05-20T08:37:15;1.50;;;1.40;;
6985;SDS011;3533;51.246;6.850;2023-05-20T08:39:41;3.43;;;2.17;;
6985;SDS011;3533;51.246;6.850;2023-05-20T08:42:07;1.60;;;1.50;;
6985;SDS011;3533;51.246;6.850;2023-05-20T08:44:35;1.43;;;1.33;;
6985;SDS011;3533;51.246;6.850;2023-05-20T08:47:01;1.60;;;1.50;;
6985;SDS011;3533;51.246;6.850;2023-05-20T08:49:28;1.60;;;1.50;;
6985;SDS011;3533;51.246;6.850;2023-05-20T08:51:54;3.80;;;1.83;;
6985;SDS011;3533;51.246;6.850;2023-05-20T08:54:20;1.70;;;1.40;;
6985;SDS011;3533;51.246;6.850;2023-05-20T08:56:47;2.20;;;1.53;;
6985;SDS011;3533;51.246;6.850;2023-05-20T08:59:13;1.87;;;1.40;;
6985;SDS011;3533;51.246;6.850;2023-05-20T09:01:42;3.67;;;1.40;;
6985;SDS011;3533;51.246;6.850;2023-05-20T09:04:08;1.50;;;1.40;;
6985;SDS011;3533;51.246;6.850;2023-05-20T09:06:43;1.70;;;1.60;;
6985;SDS011;3533;51.246;6.850;2023-05-20T09:09:11;1.70;;;1.60;;
6985;SDS011;3533;51.246;6.850;2023-05-20T09:11:38;1.70;;;1.60;;
6985;SDS011;3533;51.246;6.850;2023-05-20T09:14:04;1.70;;;1.60;;
6985;SDS011;3533;51.246;6.850;2023-05-20T09:16:30;2.53;;;1.60;;
6985;SDS011;3533;51.246;6.850;2023-05-20T09:18:56;1.53;;;1.43;;
6985;SDS011;3533;51.246;6.850;2023-05-20T09:21:28;1.40;;;1.30;;
6985;SDS011;3533;51.246;6.850;2023-05-20T09:23:54;1.60;;;1.50;;
6985;SDS011;3533;51.246;6.850;2023-05-20T09:26:27;1.43;;;1.33;;
6985;SDS011;3533;51.246;6.850;2023-05-20T09:28:56;1.97;;;1.87;;
6985;SDS011;3533;51.246;6.850;2023-05-20T09:31:40;2.27;;;1.50;;
6985;SDS011;3533;51.246;6.850;2023-05-20T09:34:06;2.53;;;1.80;;
6985;SDS011;3533;51.246;6.850;2023-05-20T09:36:32;5.77;;;1.70;;
6985;SDS011;3533;51.246;6.850;2023-05-20T09:39:00;1.60;;;1.50;;
6985;SDS011;3533;51.246;6.850;2023-05-20T09:41:30;1.67;;;1.57;;
6985;SDS011;3533;51.246;6.850;2023-05-20T09:44:03;1.70;;;1.60;;
6985;SDS011;3533;51.246;6.850;2023-05-20T09:46:31;1.67;;;1.57;;
6985;SDS011;3533;51.246;6.850;2023-05-20T09:48:58;1.70;;;1.60;;
6985;SDS011;3533;51.246;6.850;2023-05-20T09:51:23;3.13;;;1.40;;
6985;SDS011;3533;51.246;6.850;2023-05-20T09:53:50;2.03;;;1.60;;
6985;SDS011;3533;51.246;6.850;2023-05-20T09:56:17;1.53;;;1.43;;
6985;SDS011;3533;51.246;6.850;2023-05-20T09:58:45;2.37;;;1.63;;
6985;SDS011;3533;51.246;6.850;2023-05-20T10:01:13;1.73;;;1.63;;
6985;SDS011;3533;51.246;6.850;2023-05-20T10:03:39;1.67;;;1.50;;
6985;SDS011;3533;51.246;6.850;2023-05-20T10:06:15;1.70;;;1.60;;
6985;SDS011;3533;51.246;6.850;2023-05-20T10:09:08;2.17;;;1.57;;
6985;SDS011;3533;51.246;6.850;2023-05-20T10:14:38;1.60;;;1.50;;
6985;SDS011;3533;51.246;6.850;2023-05-20T10:17:08;1.50;;;1.40;;
6985;SDS011;3533;51.246;6.850;2023-05-20T10:19:41;1.70;;;1.60;;
6985;SDS011;3533;51.246;6.850;2023-05-20T10:22:07;2.60;;;1.80;;
6985;SDS011;3533;51.246;6.850;2023-05-20T10:24:34;1.50;;;1.40;;
6985;SDS011;3533;51.246;6.850;2023-05-20T10:27:02;1.70;;;1.60;;
6985;SDS011;3533;51.246;6.850;2023-05-20T10:29:44;2.00;;;1.90;;
6985;SDS011;3533;51.246;6.850;2023-05-20T10:32:11;1.60;;;1.50;;
6985;SDS011;3533;51.246;6.850;2023-05-20T10:34:47;2.17;;;1.70;;
6985;SDS011;3533;51.246;6.850;2023-05-20T10:37:24;1.67;;;1.57;;
6985;SDS011;3533;51.246;6.850;2023-05-20T10:40:07;1.70;;;1.60;;
6985;SDS011;3533;51.246;6.850;2023-05-20T10:42:37;3.23;;;1.83;;
6985;SDS011;3533;51.246;6.850;2023-05-20T10:45:03;2.00;;;1.90;;
6985;SDS011;3533;51.246;6.850;2023-05-20T10:47:29;1.90;;;1.80;;
6985;SDS011;3533;51.246;6.850;2023-05-20T10:49:55;1.53;;;1.43;;
6985;SDS011;3533;51.246;6.850;2023-05-20T10:52:22;1.80;;;1.70;;
6985;SDS011;3533;51.246;6.850;2023-05-20T10:57:25;1.80;;;1.70;;
6985;SDS011;3533;51.246;6.850;2023-05-20T10:59:51;1.97;;;1.87;;
6985;SDS011;3533;51.246;6.850;2023-05-20T11:02:17;2.07;;;1.87;;
6985;SDS011;3533;51.246;6.850;2023-05-20T11:04:44;1.77;;;1.67;;
6985;SDS011;3533;51.246;6.850;2023-05-20T11:07:23;1.90;;;1.80;;
6985;SDS011;3533;51.246;6.850;2023-05-20T11:09:49;2.77;;;2.30;;
6985;SDS011;3533;51.246;6.850;2023-05-20T11:12:15;1.83;;;1.73;;
6985;SDS011;3533;51.246;6.850;2023-05-20T11:14:40;2.50;;;2.30;;
6985;SDS011;3533;51.246;6.850;2023-05-20T11:17:06;2.00;;;1.90;;
6985;SDS011;3533;51.246;6.850;2023-05-20T11:19:32;1.70;;;1.60;;
6985;SDS011;3533;51.246;6.850;2023-05-20T11:21:57;1.67;;;1.57;;
6985;SDS011;3533;51.246;6.850;2023-05-20T11:24:23;1.80;;;1.70;;
6985;SDS011;3533;51.246;6.850;2023-05-20T11:26:53;2.17;;;2.00;;
6985;SDS011;3533;51.246;6.850;2023-05-20T11:29:20;4.63;;;1.83;;
6985;SDS011;3533;51.246;6.850;2023-05-20T11:31:46;1.70;;;1.60;;
6985;SDS011;3533;51.246;6.850;2023-05-20T11:34:18;2.30;;;2.20;;
6985;SDS011;3533;51.246;6.850;2023-05-20T11:36:44;2.67;;;1.97;;
6985;SDS011;3533;51.246;6.850;2023-05-20T11:39:12;2.30;;;2.20;;
6985;SDS011;3533;51.246;6.850;2023-05-20T11:41:38;5.80;;;2.50;;
6985;SDS011;3533;51.246;6.850;2023-05-20T11:44:08;2.00;;;1.90;;
6985;SDS011;3533;51.246;6.850;2023-05-20T11:46:42;2.70;;;2.50;;
6985;SDS011;3533;51.246;6.850;2023-05-20T11:49:08;2.93;;;2.73;;
6985;SDS011;3533;51.246;6.850;2023-05-20T11:51:34;2.40;;;2.30;;
6985;SDS011;3533;51.246;6.850;2023-05-20T11:54:02;2.33;;;2.13;;
6985;SDS011;3533;51.246;6.850;2023-05-20T11:56:29;2.93;;;2.20;;
6985;SDS011;3533;51.246;6.850;2023-05-20T11:58:58;2.63;;;2.53;;
6985;SDS011;3533;51.246;6.850;2023-05-20T12:01:25;2.17;;;2.07;;
6985;SDS011;3533;51.246;6.850;2023-05-20T12:03:54;2.40;;;2.20;;
6985;SDS011;3533;51.246;6.850;2023-05-20T12:06:19;2.53;;;2.33;;
6985;SDS011;3533;51.246;6.850;2023-05-20T12:08:45;3.27;;;2.60;;
6985;SDS011;3533;51.246;6.850;2023-05-20T12:11:11;2.40;;;2.20;;
6985;SDS011;3533;51.246;6.850;2023-05-20T12:13:38;3.63;;;2.60;;
6985;SDS011;3533;51.246;6.850;2023-05-20T12:16:04;2.10;;;2.00;;
6985;SDS011;3533;51.246;6.850;2023-05-20T12:18:30;2.50;;;2.30;;
6985;SDS011;3533;51.246;6.850;2023-05-20T12:20:57;2.67;;;2.47;;
6985;SDS011;3533;51.246;6.850;2023-05-20T12:23:23;3.10;;;2.90;;
6985;SDS011;3533;51.246;6.850;2023-05-20T12:25:48;2.33;;;2.23;;
6985;SDS011;3533;51.246;6.850;2023-05-20T12:28:14;2.20;;;2.00;;
6985;SDS011;3533;51.246;6.850;2023-05-20T12:30:41;2.37;;;2.27;;
6985;SDS011;3533;51.246;6.850;2023-05-20T12:33:07;2.93;;;2.73;;
6985;SDS011;3533;51.246;6.850;2023-05-20T12:35:37;10.00;;;2.97;;
6985;SDS011;3533;51.246;6.850;2023-05-20T12:38:04;3.33;;;3.10;;
6985;SDS011;3533;51.246;6.850;2023-05-20T12:40:30;2.53;;;2.43;;
6985;SDS011;3533;51.246;6.850;2023-05-20T12:42:56;2.60;;;2.40;;
6985;SDS011;3533;51.246;6.850;2023-05-20T12:45:22;2.50;;;2.30;;
6985;SDS011;3533;51.246;6.850;2023-05-20T12:47:48;2.50;;;2.30;;
6985;SDS011;3533;51.246;6.850;2023-05-20T12:50:14;2.60;;;2.40;;
6985;SDS011;3533;51.246;6.850;2023-05-20T12:52:40;2.30;;;2.20;;
6985;SDS011;3533;51.246;6.850;2023-05-20T12:55:05;6.40;;;2.50;;
6985;SDS011;3533;51.246;6.850;2023-05-20T12:57:37;2.90;;;2.70;;
6985;SDS011;3533;51.246;6.850;2023-05-20T13:00:10;4.53;;;2.33;;
6985;SDS011;3533;51.246;6.850;2023-05-20T13:02:36;2.37;;;2.27;;
6985;SDS011;3533;51.246;6.850;2023-05-20T13:05:02;2.47;;;2.37;;
6985;SDS011;3533;51.246;6.850;2023-05-20T13:07:29;3.13;;;2.93;;
6985;SDS011;3533;51.246;6.850;2023-05-20T13:09:55;3.27;;;3.10;;
6985;SDS011;3533;51.246;6.850;2023-05-20T13:12:21;3.00;;;2.80;;
6985;SDS011;3533;51.246;6.850;2023-05-20T13:14:47;3.67;;;3.37;;
6985;SDS011;3533;51.246;6.850;2023-05-20T13:17:12;3.30;;;3.10;;
6985;SDS011;3533;51.246;6.850;2023-05-20T13:19:38;2.60;;;2.40;;
6985;SDS011;3533;51.246;6.850;2023-05-20T13:22:04;2.97;;;2.77;;
6985;SDS011;3533;51.246;6.850;2023-05-20T13:24:30;2.80;;;2.60;;
6985;SDS011;3533;51.246;6.850;2023-05-20T13:26:56;2.77;;;2.53;;
6985;SDS011;3533;51.246;6.850;2023-05-20T13:29:21;3.07;;;2.87;;
6985;SDS011;3533;51.246;6.850;2023-05-20T13:31:47;2.77;;;2.67;;
6985;SDS011;3533;51.246;6.850;2023-05-20T13:34:13;2.37;;;2.17;;
6985;SDS011;3533;51.246;6.850;2023-05-20T13:36:38;2.40;;;2.30;;
6985;SDS011;3533;51.246;6.850;2023-05-20T13:39:04;3.47;;;3.17;;
6985;SDS011;3533;51.246;6.850;2023-05-20T13:41:30;2.47;;;2.27;;
6985;SDS011;3533;51.246;6.850;2023-05-20T13:43:56;2.93;;;2.80;;
6985;SDS011;3533;51.246;6.850;2023-05-20T13:46:22;2.77;;;2.57;;
6985;SDS011;3533;51.246;6.850;2023-05-20T13:48:48;3.03;;;2.73;;
6985;SDS011;3533;51.246;6.850;2023-05-20T13:51:13;2.70;;;2.60;;
6985;SDS011;3533;51.246;6.850;2023-05-20T13:53:39;2.80;;;2.60;;
6985;SDS011;3533;51.246;6.850;2023-05-20T13:56:04;2.87;;;2.77;;
6985;SDS011;3533;51.246;6.850;2023-05-20T13:58:33;2.50;;;2.40;;
6985;SDS011;3533;51.246;6.850;2023-05-20T14:01:01;2.70;;;2.60;;
6985;SDS011;3533;51.246;6.850;2023-05-20T14:03:30;4.50;;;2.60;;
6985;SDS011;3533;51.246;6.850;2023-05-20T14:05:57;3.20;;;3.00;;
6985;SDS011;3533;51.246;6.850;2023-05-20T14:08:24;2.93;;;2.73;;
6985;SDS011;3533;51.246;6.850;2023-05-20T14:10:49;3.40;;;3.20;;
6985;SDS011;3533;51.246;6.850;2023-05-20T14:13:19;3.13;;;2.30;;
6985;SDS011;3533;51.246;6.850;2023-05-20T14:15:45;2.83;;;2.63;;
6985;SDS011;3533;51.246;6.850;2023-05-20T14:18:11;2.80;;;2.60;;
6985;SDS011;3533;51.246;6.850;2023-05-20T14:20:36;4.37;;;3.33;;
6985;SDS011;3533;51.246;6.850;2023-05-20T14:23:02;3.30;;;2.53;;
6985;SDS011;3533;51.246;6.850;2023-05-20T14:25:28;6.80;;;3.00;;
6985;SDS011;3533;51.246;6.850;2023-05-20T14:27:53;3.50;;;2.73;;
6985;SDS011;3533;51.246;6.850;2023-05-20T14:30:19;9.53;;;3.67;;
6985;SDS011;3533;51.246;6.850;2023-05-20T14:32:44;13.27;;;3.40;;
6985;SDS011;3533;51.246;6.850;2023-05-20T14:35:10;13.13;;;3.30;;
6985;SDS011;3533;51.246;6.850;2023-05-20T14:37:35;14.27;;;3.90;;
6985;SDS011;3533;51.246;6.850;2023-05-20T14:40:02;8.77;;;3.77;;
6985;SDS011;3533;51.246;6.850;2023-05-20T14:42:29;6.07;;;2.87;;
6985;SDS011;3533;51.246;6.850;2023-05-20T14:44:54;14.97;;;3.10;;
6985;SDS011;3533;51.246;6.850;2023-05-20T14:47:20;9.00;;;3.30;;
6985;SDS011;3533;51.246;6.850;2023-05-20T14:49:46;6.43;;;3.07;;
6985;SDS011;3533;51.246;6.850;2023-05-20T14:52:13;3.40;;;2.87;;
6985;SDS011;3533;51.246;6.850;2023-05-20T14:54:40;10.00;;;3.70;;
6985;SDS011;3533;51.246;6.850;2023-05-20T14:57:05;6.37;;;2.83;;
6985;SDS011;3533;51.246;6.850;2023-05-20T14:59:31;5.17;;;2.90;;
6985;SDS011;3533;51.246;6.850;2023-05-20T15:01:57;3.70;;;3.07;;
6985;SDS011;3533;51.246;6.850;2023-05-20T15:04:23;7.93;;;3.33;;
6985;SDS011;3533;51.246;6.850;2023-05-20T15:06:48;3.50;;;2.40;;
6985;SDS011;3533;51.246;6.850;2023-05-20T15:09:14;3.10;;;2.90;;
6985;SDS011;3533;51.246;6.850;2023-05-20T15:11:40;3.50;;;3.30;;
6985;SDS011;3533;51.246;6.850;2023-05-20T15:14:06;5.10;;;3.23;;
6985;SDS011;3533;51.246;6.850;2023-05-20T15:16:31;10.73;;;2.90;;